RJTH(METAR)
02/28 07:00
RJTH 272200Z 03019KT 9999 RA FEW020 SCT030 BKN050 10/06 Q1021 RMK
A3017=
戻る
トップページへ戻る
IMOC Co,.Ltd.